Time;durP1;ratioP1;P1;durP2;ratioP2;P2;SDS_P1;SDS_P2;PMS_P1;PMS_P2;Temp;Humidity;BMP_temperature;BMP_pressure;BME280_temperature;BME280_humidity;BME280_pressure;Samples;Min_cycle;Max_cycle;Signal;HPM_P1;HPM_P2
2023/06/12 00:01:36;;;;;;;;;19.33;19.33;;;;;20.62;100.00;101312.38;5050054;28;47124;-81
2023/06/12 00:04:02;;;;;;;;;17.33;17.33;;;;;20.61;100.00;101310.69;5061186;28;45312;-80
2023/06/12 00:06:28;;;;;;;;;22.00;20.67;;;;;20.52;100.00;101298.84;5068784;28;45377;-80
2023/06/12 00:08:53;;;;;;;;;18.00;17.33;;;;;20.57;100.00;101309.22;5044142;28;45555;-81
2023/06/12 00:11:20;;;;;;;;;16.67;16.67;;;;;20.56;100.00;101302.13;5063703;28;45296;-81
2023/06/12 00:13:47;;;;;;;;;20.33;19.33;;;;;20.56;100.00;101308.38;5071317;28;45470;-81
2023/06/12 00:16:12;;;;;;;;;20.00;20.00;;;;;20.50;100.00;101297.25;5063958;28;45377;-81
2023/06/12 00:18:40;;;;;;;;;23.00;21.33;;;;;20.56;100.00;101304.81;5058119;28;45419;-82
2023/06/12 00:21:08;;;;;;;;;21.00;18.33;;;;;20.48;100.00;101292.03;5059295;28;45476;-81
2023/06/12 00:23:34;;;;;;;;;18.67;15.33;;;;;20.55;100.00;101303.13;5061940;28;45244;-81
2023/06/12 00:26:00;;;;;;;;;17.33;15.33;;;;;20.44;100.00;101285.19;5065965;28;45317;-80
2023/06/12 00:28:25;;;;;;;;;21.00;17.33;;;;;20.48;100.00;101291.16;5032094;28;48950;-80
2023/06/12 00:30:50;;;;;;;;;22.00;20.33;;;;;20.46;100.00;101293.09;5045342;28;45405;-80
2023/06/12 00:33:16;;;;;;;;;21.67;21.67;;;;;20.46;100.00;101288.59;5036479;28;45630;-81
2023/06/12 00:35:42;;;;;;;;;16.33;16.33;;;;;20.49;100.00;101290.16;5035238;28;45510;-80
2023/06/12 00:38:07;;;;;;;;;25.67;22.67;;;;;20.39;100.00;101273.94;5058770;28;45523;-81
2023/06/12 00:40:33;;;;;;;;;21.00;19.67;;;;;20.43;100.00;101278.09;5059186;28;45572;-80
2023/06/12 00:43:00;;;;;;;;;21.67;20.67;;;;;20.48;100.00;101285.78;5055606;28;45410;-80
2023/06/12 00:45:26;;;;;;;;;22.33;18.00;;;;;20.45;100.00;101283.34;5059306;28;45363;-81
2023/06/12 00:47:53;;;;;;;;;20.33;18.33;;;;;20.48;100.00;101289.34;5059398;28;45305;-81
2023/06/12 00:50:25;;;;;;;;;22.33;18.00;;;;;20.37;100.00;101281.28;5055866;28;46203;-80
2023/06/12 00:52:52;;;;;;;;;19.67;18.33;;;;;20.36;100.00;101259.91;5041475;28;45590;-80
2023/06/12 00:55:17;;;;;;;;;18.33;18.33;;;;;20.35;100.00;101268.94;5038855;28;45309;-80
2023/06/12 00:57:43;;;;;;;;;22.67;21.33;;;;;20.45;100.00;101281.50;5071173;28;46211;-80
2023/06/12 01:00:11;;;;;;;;;20.67;19.33;;;;;20.44;100.00;101284.31;5043230;28;47334;-80
2023/06/12 01:02:42;;;;;;;;;19.33;18.33;;;;;20.44;100.00;101289.69;5056659;28;45400;-80
2023/06/12 01:05:14;;;;;;;;;21.67;20.67;;;;;20.43;100.00;101288.84;5040930;28;45390;-80
2023/06/12 01:08:15;;;;;;;;;16.33;16.33;;;;;20.43;100.00;101290.66;5064422;28;45741;-81
2023/06/12 01:10:44;;;;;;;;;24.00;19.67;;;;;20.26;100.00;101266.00;5036725;28;47920;-80
2023/06/12 01:13:11;;;;;;;;;20.33;17.67;;;;;20.32;100.00;101274.56;5057358;28;45400;-81
2023/06/12 01:15:37;;;;;;;;;20.33;20.33;;;;;20.40;100.00;101282.84;5039828;28;45342;-79
2023/06/12 01:18:03;;;;;;;;;23.33;21.00;;;;;20.40;100.00;101281.03;5036368;28;45314;-81
2023/06/12 01:20:29;;;;;;;;;23.67;21.33;;;;;20.42;100.00;101283.59;5040907;28;46560;-81
2023/06/12 01:23:20;;;;;;;;;22.67;22.33;;;;;20.40;100.00;101281.03;5045336;28;45605;-83
2023/06/12 01:25:51;;;;;;;;;17.67;16.33;;;;;20.40;100.00;101281.03;5008444;28;45527;-82
2023/06/12 01:28:23;;;;;;;;;19.00;16.00;;;;;20.38;100.00;101269.56;5060271;28;45478;-81
2023/06/12 01:31:38;;;;;;;;;18.67;17.33;;;;;20.37;100.00;101275.03;5064524;28;46200;-82
2023/06/12 01:34:15;;;;;;;;;19.00;18.33;;;;;20.24;100.00;101249.16;4998765;28;45538;-81
2023/06/12 01:36:48;;;;;;;;;20.00;18.67;;;;;20.24;100.00;101253.66;5041193;28;45315;-81
2023/06/12 01:39:15;;;;;;;;;20.00;19.00;;;;;20.32;100.00;101263.84;5076549;28;45422;-81
2023/06/12 01:41:41;;;;;;;;;18.33;16.67;;;;;20.27;100.00;101261.50;5068004;28;45369;-80
2023/06/12 01:44:09;;;;;;;;;17.33;16.33;;;;;20.27;100.00;101267.72;5039776;28;45342;-80
2023/06/12 01:46:35;;;;;;;;;19.33;18.00;;;;;20.30;100.00;101272.00;5045294;28;45307;-81
2023/06/12 01:49:05;;;;;;;;;22.67;18.33;;;;;20.30;100.00;101263.06;5039581;28;45408;-80
2023/06/12 01:51:30;;;;;;;;;20.67;20.33;;;;;20.29;100.00;101280.19;5039220;28;48189;-81
2023/06/12 01:53:55;;;;;;;;;23.67;22.67;;;;;20.24;100.00;101269.78;5038794;28;45428;-80
2023/06/12 01:56:24;;;;;;;;;23.00;22.67;;;;;20.13;100.00;101246.44;5051707;28;53131;-81
2023/06/12 01:58:49;;;;;;;;;25.00;20.67;;;;;20.26;100.00;101274.06;5069972;28;45396;-80
2023/06/12 02:01:15;;;;;;;;;22.33;20.67;;;;;20.23;100.00;101268.06;5051223;28;47883;-80
2023/06/12 02:03:41;;;;;;;;;20.33;20.33;;;;;20.08;100.00;101250.50;5054205;28;45634;-80
2023/06/12 02:06:07;;;;;;;;;23.67;20.00;;;;;20.23;100.00;101285.03;5052433;28;45443;-79
2023/06/12 02:08:32;;;;;;;;;20.00;17.67;;;;;20.15;100.00;101259.78;5057597;28;45440;-81
2023/06/12 02:10:57;;;;;;;;;16.33;15.33;;;;;20.23;100.00;101281.50;5059394;28;46335;-81
2023/06/12 02:13:23;;;;;;;;;19.33;17.67;;;;;20.21;100.00;101280.75;5058350;28;50577;-81
2023/06/12 02:15:48;;;;;;;;;20.67;19.33;;;;;20.12;100.00;101262.72;5066886;28;45260;-80
2023/06/12 02:18:13;;;;;;;;;18.00;17.33;;;;;20.20;100.00;101271.84;5067609;28;45304;-81
2023/06/12 02:20:39;;;;;;;;;14.00;12.33;;;;;20.18;100.00;101278.31;5056764;28;46178;-81
2023/06/12 02:23:04;;;;;;;;;17.00;17.00;;;;;20.17;100.00;101274.78;5058049;28;45307;-80
2023/06/12 02:25:29;;;;;;;;;20.67;17.00;;;;;20.09;100.00;101268.31;5040970;28;45352;-82
2023/06/12 02:27:55;;;;;;;;;17.67;16.33;;;;;20.14;100.00;101268.78;5038406;28;45664;-81
2023/06/12 02:30:20;;;;;;;;;21.67;19.00;;;;;20.15;100.00;101284.81;5043174;28;46654;-81
2023/06/12 02:32:47;;;;;;;;;17.67;16.33;;;;;20.21;100.00;101291.50;5057155;28;45535;-82
2023/06/12 02:35:12;;;;;;;;;18.67;18.00;;;;;20.21;100.00;101300.44;5054545;28;45486;-82
2023/06/12 02:37:38;;;;;;;;;18.33;16.67;;;;;20.14;100.00;101290.28;5064181;28;45316;-81
2023/06/12 02:40:04;;;;;;;;;18.00;17.00;;;;;20.22;100.00;101304.81;5057454;28;45479;-81
2023/06/12 02:42:29;;;;;;;;;18.67;18.67;;;;;20.24;100.00;101304.69;5064870;28;45451;-81
2023/06/12 02:44:54;;;;;;;;;18.67;18.00;;;;;20.22;100.00;101309.34;5065305;28;45418;-80
2023/06/12 02:47:20;;;;;;;;;19.67;18.00;;;;;20.05;100.00;101282.97;5051289;28;51976;-81
2023/06/12 02:49:45;;;;;;;;;19.00;17.00;;;;;20.08;100.00;101288.09;5062668;28;45454;-81
2023/06/12 02:52:11;;;;;;;;;21.67;18.00;;;;;20.16;100.00;101297.22;5058552;28;45464;-81
2023/06/12 02:54:37;;;;;;;;;21.33;20.00;;;;;20.08;100.00;101274.66;5053254;28;45419;-81
2023/06/12 02:57:02;;;;;;;;;22.00;20.00;;;;;20.16;100.00;101277.56;5065300;28;55993;-81
2023/06/12 02:59:27;;;;;;;;;20.33;17.67;;;;;20.17;100.00;101285.53;5080493;28;45482;-80
2023/06/12 03:01:53;;;;;;;;;17.67;14.67;;;;;20.21;100.00;101283.44;5049441;28;45318;-81
2023/06/12 03:04:23;;;;;;;;;18.00;16.33;;;;;20.19;100.00;101283.56;5057351;28;45268;-81
2023/06/12 03:06:52;;;;;;;;;18.00;18.00;;;;;20.18;100.00;101281.00;5044462;28;45400;-81
2023/06/12 03:09:18;;;;;;;;;20.67;17.33;;;;;20.11;100.00;101277.09;5040520;28;46107;-81
2023/06/12 03:11:43;;;;;;;;;22.67;19.67;;;;;20.10;100.00;101272.69;5045177;28;45422;-81
2023/06/12 03:14:09;;;;;;;;;18.67;16.67;;;;;19.97;100.00;101264.75;5055044;28;45315;-82
2023/06/12 03:16:36;;;;;;;;;22.33;19.00;;;;;20.00;100.00;101275.25;5060585;28;45266;-81
2023/06/12 03:19:02;;;;;;;;;15.67;15.67;;;;;20.01;100.00;101282.34;5045174;28;46540;-82
2023/06/12 03:21:27;;;;;;;;;18.00;18.00;;;;;19.98;100.00;101281.72;5055325;28;45477;-81
2023/06/12 03:23:52;;;;;;;;;18.33;18.33;;;;;19.92;100.00;101275.03;5070249;28;46215;-81
2023/06/12 03:26:18;;;;;;;;;15.67;14.67;;;;;19.99;100.00;101294.19;5071152;28;45414;-81
2023/06/12 03:28:45;;;;;;;;;17.33;17.33;;;;;20.01;100.00;101289.53;5042476;28;47156;-81
2023/06/12 03:31:10;;;;;;;;;19.67;18.67;;;;;19.90;100.00;101279.63;5060586;28;45389;-80
2023/06/12 03:33:35;;;;;;;;;18.67;18.67;;;;;19.81;100.00;101280.38;5072611;28;45488;-81
2023/06/12 03:36:01;;;;;;;;;20.00;17.33;;;;;19.80;100.00;101275.97;5062338;28;45428;-81
2023/06/12 03:38:26;;;;;;;;;18.67;18.67;;;;;19.88;100.00;101292.34;5061909;28;50653;-81
2023/06/12 03:40:51;;;;;;;;;19.67;19.67;;;;;19.85;100.00;101297.94;5063592;28;45276;-81
2023/06/12 03:43:17;;;;;;;;;19.67;18.67;;;;;19.84;100.00;101301.59;5051931;28;45619;-81
2023/06/12 03:45:42;;;;;;;;;23.67;19.33;;;;;19.67;100.00;101277.88;5065222;28;45326;-81
2023/06/12 03:48:07;;;;;;;;;19.33;18.00;;;;;19.80;100.00;101294.75;5043658;28;46675;-81
2023/06/12 03:50:33;;;;;;;;;17.00;16.33;;;;;19.77;100.00;101300.34;5060060;28;45371;-82
2023/06/12 03:52:58;;;;;;;;;18.33;16.33;;;;;19.73;100.00;101286.31;5062128;28;45502;-81
2023/06/12 03:55:24;;;;;;;;;21.00;19.67;;;;;19.75;100.00;101296.94;5045852;28;45241;-81
2023/06/12 03:57:50;;;;;;;;;18.33;17.33;;;;;19.71;100.00;101300.84;5073916;28;46077;-81
2023/06/12 04:00:16;;;;;;;;;18.00;17.00;;;;;19.68;100.00;101303.75;5067030;28;45835;-81
2023/06/12 04:02:42;;;;;;;;;17.00;17.00;;;;;19.57;100.00;101303.72;5044064;28;45553;-81
2023/06/12 04:05:08;;;;;;;;;16.33;16.00;;;;;19.60;100.00;101300.81;5063197;28;45538;-81
2023/06/12 04:07:36;;;;;;;;;15.33;14.67;;;;;19.47;100.00;101281.28;5059994;28;45501;-82
2023/06/12 04:10:02;;;;;;;;;18.33;17.00;;;;;19.59;100.00;101299.97;5072882;28;45317;-82
2023/06/12 04:12:28;;;;;;;;;18.00;16.00;;;;;19.65;100.00;101301.31;5075395;28;45298;-82
2023/06/12 04:14:53;;;;;;;;;18.33;15.00;;;;;19.49;100.00;101284.69;5060983;28;45406;-82
2023/06/12 04:17:18;;;;;;;;;13.67;13.67;;;;;19.55;100.00;101303.84;5057780;28;46253;-81
2023/06/12 04:19:45;;;;;;;;;20.00;16.33;;;;;19.57;100.00;101298.34;5059127;28;45264;-82
2023/06/12 04:22:12;;;;;;;;;13.67;13.67;;;;;19.45;100.00;101289.44;5060193;28;45304;-81
2023/06/12 04:24:41;;;;;;;;;15.00;15.00;;;;;19.41;100.00;101279.91;5072258;28;45455;-81
2023/06/12 04:27:09;;;;;;;;;15.67;15.00;;;;;19.57;100.00;101303.72;5078931;28;45392;-82
2023/06/12 04:29:37;;;;;;;;;19.00;16.00;;;;;19.55;100.00;101293.13;5053508;28;45338;-79
2023/06/12 04:32:06;;;;;;;;;12.50;12.50;;;;;19.41;100.00;101284.41;5041989;28;45633;-81
2023/06/12 04:34:43;;;;;;;;;17.67;16.67;;;;;19.43;100.00;101274.44;5051607;28;45582;-81
2023/06/12 04:37:13;;;;;;;;;18.00;13.67;;;;;19.52;100.00;101290.69;5042453;28;47917;-82
2023/06/12 04:39:40;;;;;;;;;13.67;13.67;;;;;19.45;100.00;101277.84;5072039;28;45580;-81
2023/06/12 04:42:08;;;;;;;;;18.00;16.67;;;;;19.53;100.00;101289.72;5059721;28;45433;-80
2023/06/12 04:44:34;;;;;;;;;15.67;14.00;;;;;19.36;100.00;101265.09;5041503;28;45498;-81
2023/06/12 04:47:11;;;;;;;;;18.33;17.00;;;;;19.41;100.00;101273.66;5066789;28;45518;-81
2023/06/12 04:49:40;;;;;;;;;19.33;16.00;;;;;19.39;100.00;101267.53;5070158;28;45338;-82
2023/06/12 04:52:06;;;;;;;;;18.00;16.67;;;;;19.39;100.00;101283.66;5038571;28;45382;-82
2023/06/12 04:54:35;;;;;;;;;16.33;15.00;;;;;19.49;100.00;101298.97;5052131;28;45333;-82
2023/06/12 04:57:03;;;;;;;;;15.67;11.67;;;;;19.35;100.00;101276.78;5041595;28;47324;-81
2023/06/12 04:59:28;;;;;;;;;17.67;15.33;;;;;19.49;100.00;101290.91;5067646;28;45356;-81
2023/06/12 05:01:58;;;;;;;;;18.00;15.67;;;;;19.38;100.00;101276.56;5054795;28;45512;-81
2023/06/12 05:04:24;;;;;;;;;12.67;12.00;;;;;19.53;100.00;101295.09;5060468;28;45494;-82
2023/06/12 05:06:51;;;;;;;;;16.00;14.33;;;;;19.48;100.00;101296.38;5040823;28;46706;-82
2023/06/12 05:09:20;;;;;;;;;16.67;15.00;;;;;19.53;100.00;101297.75;5062566;28;45578;-82
2023/06/12 05:11:45;;;;;;;;;17.67;12.33;;;;;19.53;100.00;101287.03;5067279;28;45378;-82
2023/06/12 05:14:10;;;;;;;;;15.67;13.67;;;;;19.63;100.00;101312.16;5059902;28;45452;-82
2023/06/12 05:16:36;;;;;;;;;15.33;13.00;;;;;19.61;100.00;101295.31;5064968;28;45541;-82
2023/06/12 05:19:01;;;;;;;;;15.67;15.00;;;;;19.64;100.00;101299.59;5037404;28;45430;-81
2023/06/12 05:21:27;;;;;;;;;16.00;13.33;;;;;19.64;100.00;101300.47;5059794;28;45221;-81
2023/06/12 05:23:52;;;;;;;;;9.67;9.67;;;;;19.60;100.00;101304.34;5046395;28;45244;-81
2023/06/12 05:26:18;;;;;;;;;12.00;12.00;;;;;19.50;100.00;101289.91;5064512;28;45791;-81
2023/06/12 05:28:43;;;;;;;;;11.67;11.67;;;;;19.60;100.00;101300.81;5064146;28;45391;-82
2023/06/12 05:31:08;;;;;;;;;8.67;8.00;;;;;19.58;100.00;101300.06;5066834;28;45658;-81
2023/06/12 05:33:34;;;;;;;;;14.00;12.33;;;;;19.47;100.00;101286.66;5062350;28;45474;-81
2023/06/12 05:35:59;;;;;;;;;13.00;11.00;;;;;19.47;100.00;101283.97;5053071;28;45525;-81
2023/06/12 05:38:25;;;;;;;;;10.67;9.33;;;;;19.52;100.00;101290.69;5057053;28;45385;-81
2023/06/12 05:40:51;;;;;;;;;12.33;12.00;;;;;19.49;100.00;101295.41;5060309;28;45393;-81
2023/06/12 05:43:16;;;;;;;;;12.00;10.67;;;;;19.40;100.00;101285.38;5059397;28;45315;-81
2023/06/12 05:45:42;;;;;;;;;10.00;10.00;;;;;19.33;100.00;101281.44;5064717;28;45526;-81
2023/06/12 05:48:07;;;;;;;;;13.33;10.33;;;;;19.48;100.00;101312.47;5039754;28;45359;-81
2023/06/12 05:50:32;;;;;;;;;13.67;13.00;;;;;19.49;100.00;101311.50;5060010;28;45459;-81
2023/06/12 05:52:58;;;;;;;;;14.33;11.33;;;;;19.45;100.00;101310.03;5054297;28;45509;-81
2023/06/12 05:55:23;;;;;;;;;12.67;10.33;;;;;19.53;100.00;101321.06;5071928;28;45379;-81
2023/06/12 05:57:48;;;;;;;;;11.00;11.00;;;;;19.42;100.00;101286.97;5047544;28;45770;-82
2023/06/12 06:00:15;;;;;;;;;14.00;10.67;;;;;19.56;100.00;101304.72;5073725;28;45880;-81
2023/06/12 06:02:42;;;;;;;;;10.00;10.00;;;;;19.59;100.00;101296.44;5064012;28;45486;-82
2023/06/12 06:05:09;;;;;;;;;12.33;9.33;;;;;19.66;100.00;101309.25;5066721;28;46037;-81
2023/06/12 06:07:35;;;;;;;;;13.67;12.00;;;;;19.68;100.00;101304.63;5060569;28;45540;-81
2023/06/12 06:10:00;;;;;;;;;6.67;6.00;;;;;19.81;100.00;101303.66;5048044;28;45348;-82
2023/06/12 06:12:26;;;;;;;;;11.33;8.33;;;;;19.92;100.00;101311.75;5041492;28;45505;-82
2023/06/12 06:14:51;;;;;;;;;10.67;9.00;;;;;19.96;100.00;101307.84;5070675;28;45222;-82
2023/06/12 06:17:17;;;;;;;;;10.33;9.00;;;;;19.89;100.00;101301.25;5057352;28;45575;-85
2023/06/12 06:19:45;;;;;;;;;10.00;10.00;;;;;19.90;100.00;101319.03;5034872;28;45665;-84
2023/06/12 06:22:12;;;;;;;;;10.67;8.33;;;;;19.92;100.00;101317.97;5041488;28;46511;-84
2023/06/12 06:24:41;;;;;;;;;10.33;9.33;;;;;19.99;100.00;101324.56;5035836;28;47184;-85
2023/06/12 06:27:07;;;;;;;;;8.67;8.00;;;;;19.99;100.00;101316.50;5033151;28;45528;-84
2023/06/12 06:29:33;;;;;;;;;6.67;6.67;;;;;20.08;100.00;101331.91;5053089;28;46051;-84
2023/06/12 06:32:00;;;;;;;;;10.33;10.33;;;;;20.15;100.00;101325.09;5048497;28;45290;-84
2023/06/12 06:34:27;;;;;;;;;12.67;11.33;;;;;20.04;100.00;101306.28;5034175;28;46295;-83
2023/06/12 06:36:52;;;;;;;;;14.50;11.00;;;;;20.21;100.00;101324.59;5045430;28;45320;-82
2023/06/12 06:39:18;;;;;;;;;16.00;13.00;;;;;20.12;100.00;101303.00;5047772;28;45290;-84
2023/06/12 06:41:43;;;;;;;;;10.67;10.67;;;;;20.25;100.00;101323.38;5050879;28;45478;-82
2023/06/12 06:44:09;;;;;;;;;13.33;11.33;;;;;20.18;100.00;101319.47;5034574;28;45435;-82
2023/06/12 06:46:34;;;;;;;;;11.33;11.00;;;;;20.11;100.00;101302.13;5033087;28;45355;-82
2023/06/12 06:49:00;;;;;;;;;10.67;10.67;;;;;20.14;100.00;101315.31;5043142;28;45508;-83
2023/06/12 06:51:25;;;;;;;;;9.67;9.67;;;;;20.21;100.00;101308.50;5036247;28;45390;-83
2023/06/12 06:53:51;;;;;;;;;11.67;11.00;;;;;20.35;100.00;101322.69;5030444;28;45680;-83
2023/06/12 06:59:46;;;;;;;;;10.67;10.00;;;;;20.20;100.00;101296.03;5049486;28;45424;-82
2023/06/12 07:02:12;;;;;;;;;10.67;10.00;;;;;19.74;100.00;101222.75;5041178;28;45312;-88
2023/06/12 07:04:48;;;;;;;;;11.00;9.00;;;;;20.18;100.00;101281.88;5052949;28;46980;-82
2023/06/12 07:07:17;;;;;;;;;16.33;12.33;;;;;20.08;100.00;101264.78;5040212;28;46182;-82
2023/06/12 07:09:46;;;;;;;;;10.33;7.33;;;;;19.87;100.00;101209.22;5042136;28;45464;-82
2023/06/12 07:12:15;;;;;;;;;10.33;10.33;;;;;20.18;100.00;101248.78;5057489;28;45517;-81
2023/06/12 07:20:51;;;;;;;;;15.33;12.67;;;;;20.72;100.00;101305.28;5042964;28;45519;-82
2023/06/12 07:23:37;;;;;;;;;;;;;;;;;;;;;
2023/06/12 07:26:09;;;;;;;;;7.67;7.67;;;;;20.32;100.00;101224.34;5064314;28;74136;-83
2023/06/12 07:28:46;;;;;;;;;10.00;9.00;;;;;20.33;100.00;101211.78;5067876;28;45465;-83
2023/06/12 07:31:23;;;;;;;;;16.00;12.33;;;;;20.94;100.00;101321.38;5059848;28;45374;-83
2023/06/12 07:33:58;;;;;;;;;11.00;10.00;;;;;20.81;100.00;101277.66;5045696;28;45648;-83
2023/06/12 07:36:35;;;;;;;;;10.67;10.67;;;;;20.89;100.00;101285.09;5063741;28;46659;-83
2023/06/12 07:39:10;;;;;;;;;11.67;10.33;;;;;21.17;100.00;101298.84;5062430;28;45723;-82
2023/06/12 07:41:39;;;;;;;;;9.00;9.00;;;;;20.96;100.00;101259.41;5055475;28;45356;-82
2023/06/12 07:44:08;;;;;;;;;6.00;3.00;;;;;20.86;100.00;101226.19;5049826;28;45408;-82
2023/06/12 07:46:53;;;;;;;;;9.00;6.00;;;;;21.07;100.00;101241.38;5059425;28;46227;-82
2023/06/12 07:49:19;;;;;;;;;11.33;11.00;;;;;21.05;100.00;101235.28;5041413;28;45306;-83
2023/06/12 07:52:18;;;;;;;;;11.67;9.67;;;;;21.43;98.58;101268.91;5061648;28;45383;-83
2023/06/12 07:54:52;;;;;;;;;11.33;11.33;;;;;21.86;100.00;101328.00;5062542;27;45351;-83
2023/06/12 07:57:17;;;;;;;;;11.00;10.67;;;;;21.89;100.00;101315.13;5069938;28;46474;-84
2023/06/12 07:59:44;;;;;;;;;10.00;9.00;;;;;22.11;94.48;101322.22;5080449;28;45388;-83
2023/06/12 08:02:10;;;;;;;;;11.00;10.00;;;;;22.12;95.88;101316.69;5043116;28;45470;-82
2023/06/12 08:04:40;;;;;;;;;10.67;8.00;;;;;22.15;94.12;101310.19;5074552;28;45457;-82
2023/06/12 08:07:06;;;;;;;;;9.00;8.50;;;;;22.20;95.14;101314.19;5066011;28;45462;-83
2023/06/12 08:09:32;;;;;;;;;9.33;9.33;;;;;22.20;94.47;101314.19;5044481;28;45305;-83
2023/06/12 08:11:57;;;;;;;;;11.00;11.00;;;;;22.24;98.53;101314.78;5045661;28;45763;-83
2023/06/12 08:14:23;;;;;;;;;7.67;5.67;;;;;22.13;95.61;101290.59;5070250;28;45251;-83
2023/06/12 08:16:49;;;;;;;;;9.67;8.67;;;;;22.18;94.44;101297.31;5063253;28;47610;-82
2023/06/12 08:19:14;;;;;;;;;11.67;10.33;;;;;22.24;96.16;101304.84;5050791;28;45967;-82
2023/06/12 08:21:40;;;;;;;;;8.67;7.33;;;;;22.25;93.32;101303.84;5029134;28;45462;-83
2023/06/12 08:24:09;;;;;;;;;10.67;9.00;;;;;22.13;94.94;101286.06;5052625;28;45612;-83
2023/06/12 08:26:34;;;;;;;;;9.67;9.67;;;;;22.16;93.99;101301.97;5080861;28;45523;-83
2023/06/12 08:29:00;;;;;;;;;11.00;11.00;;;;;22.13;95.83;101298.69;5066491;28;45341;-83
2023/06/12 08:31:25;;;;;;;;;10.67;10.67;;;;;22.06;94.04;101303.75;5060531;28;45446;-83
2023/06/12 08:33:51;;;;;;;;;8.33;8.33;;;;;21.93;94.51;101286.94;5051327;28;45454;-83
2023/06/12 08:36:16;;;;;;;;;11.00;10.67;;;;;21.95;94.06;101282.31;5072908;28;45434;-83
2023/06/12 08:38:41;;;;;;;;;10.67;10.00;;;;;21.96;93.07;101273.22;5041867;28;45416;-83
2023/06/12 08:41:10;;;;;;;;;13.33;13.33;;;;;22.16;91.56;101301.97;5072803;28;45320;-83
2023/06/12 08:43:35;;;;;;;;;15.00;10.67;;;;;22.10;93.30;101262.09;5059951;28;45484;-83
2023/06/12 08:46:07;;;;;;;;;13.67;11.67;;;;;22.26;93.83;101289.38;5055149;28;47555;-84
2023/06/12 08:48:33;;;;;;;;;14.00;12.00;;;;;22.25;92.14;101276.06;5043830;28;45448;-83
2023/06/12 08:51:01;;;;;;;;;13.33;12.67;;;;;22.37;94.61;101291.16;5061193;28;45498;-83
2023/06/12 08:53:27;;;;;;;;;12.33;12.33;;;;;22.44;95.06;101288.75;5055291;28;45372;-83
2023/06/12 08:55:55;;;;;;;;;10.33;10.33;;;;;22.53;92.01;101278.00;5061912;28;46604;-83
2023/06/12 08:58:21;;;;;;;;;21.33;13.67;;;;;22.70;93.66;101284.59;5080197;28;45661;-83
2023/06/12 09:00:47;;;;;;;;;12.33;12.33;;;;;22.77;93.50;101289.28;5061998;28;45374;-83
2023/06/12 09:03:13;;;;;;;;;11.00;11.00;;;;;22.85;89.32;101280.50;5064083;28;45479;-83
2023/06/12 09:05:40;;;;;;;;;10.67;10.67;;;;;22.70;88.03;101247.72;5061472;28;45303;-83
2023/06/12 09:08:18;;;;;;;;;10.67;10.67;;;;;22.64;89.16;101207.75;5053886;28;45458;-83
2023/06/12 09:10:57;;;;;;;;;12.33;11.00;;;;;22.94;88.30;101230.28;5060023;28;45545;-82
2023/06/12 09:13:49;;;;;;;;;14.33;14.00;;;;;23.13;88.47;101187.97;5054358;28;45471;-83
2023/06/12 09:16:30;;;;;;;;;14.67;14.67;;;;;23.78;85.42;101224.09;5060239;28;48530;-83
2023/06/12 09:19:10;;;;;;;;;8.00;7.67;;;;;23.75;86.39;101198.22;5050372;28;45571;-83
2023/06/12 09:21:36;;;;;;;;;15.33;13.33;;;;;23.71;83.20;101212.16;5042084;28;45314;-84
2023/06/12 09:24:01;;;;;;;;;13.33;12.00;;;;;23.90;82.30;101260.72;5059359;28;45374;-83
2023/06/12 09:26:26;;;;;;;;;11.33;10.67;;;;;23.43;83.18;101199.59;5036133;28;45653;-83
2023/06/12 09:28:53;;;;;;;;;9.00;9.00;;;;;23.70;84.04;101257.22;5052112;28;51246;-84
2023/06/12 09:31:21;;;;;;;;;11.33;11.33;;;;;23.85;86.52;101271.97;5057324;28;45480;-84
2023/06/12 09:33:50;;;;;;;;;17.00;14.67;;;;;23.93;87.02;101270.38;5034577;28;45490;-84
2023/06/12 09:36:19;;;;;;;;;10.67;9.67;;;;;23.87;88.62;101255.63;5058290;28;45514;-84
2023/06/12 09:38:48;;;;;;;;;16.00;14.33;;;;;23.88;86.72;101256.47;5040896;28;45347;-84
2023/06/12 09:41:13;;;;;;;;;11.33;9.67;;;;;23.82;87.49;101257.91;5054775;28;45309;-84
2023/06/12 09:43:38;;;;;;;;;13.00;12.33;;;;;23.83;89.98;101260.47;5055242;28;45486;-84
2023/06/12 09:46:27;;;;;;;;;16.67;13.33;;;;;23.52;87.43;101209.50;5059362;28;45920;-85
2023/06/12 09:52:22;;;;;;;;;17.67;14.33;;;;;23.55;87.09;101234.38;5020578;28;45570;-84
2023/06/12 09:54:46;;;;;;;;;16.00;12.67;;;;;23.35;84.92;101217.34;5064454;28;45298;-84
2023/06/12 09:57:13;;;;;;;;;17.67;15.67;;;;;23.26;86.69;101193.91;5060525;28;46768;-84
2023/06/12 09:59:41;;;;;;;;;14.00;13.67;;;;;23.58;84.44;101262.94;5053000;28;45400;-84
2023/06/12 10:02:16;;;;;;;;;16.67;13.00;;;;;23.51;86.64;101270.75;5079287;28;45305;-84
2023/06/12 10:05:01;;;;;;;;;16.00;15.00;;;;;23.32;85.84;101241.91;5079430;28;45361;-84
2023/06/12 10:07:36;;;;;;;;;18.33;14.00;;;;;23.57;88.17;101270.19;5038811;28;48006;-84
2023/06/12 10:10:07;;;;;;;;;14.00;13.00;;;;;23.73;91.47;101272.28;5039848;28;45339;-84
2023/06/12 10:12:35;;;;;;;;;14.33;12.33;;;;;23.81;90.94;101267.00;5041986;28;45609;-84
2023/06/12 10:15:03;;;;;;;;;17.33;13.00;;;;;23.73;85.27;101247.97;5040511;28;45525;-84
2023/06/12 10:17:54;;;;;;;;;17.67;16.00;;;;;23.67;84.28;101252.13;5043348;28;46319;-84
2023/06/12 10:20:26;;;;;;;;;18.67;14.67;;;;;23.46;85.03;101218.19;5054114;28;45390;-84
2023/06/12 10:23:09;;;;;;;;;16.33;15.00;;;;;23.33;87.80;101192.31;5060310;28;45364;-84
2023/06/12 10:25:48;;;;;;;;;10.67;9.67;;;;;23.40;84.43;101175.53;5034313;28;45431;-85
2023/06/12 10:28:57;;;;;;;;;22.00;18.33;;;;;23.54;87.40;101194.00;5038015;28;47798;-85
2023/06/12 10:31:56;;;;;;;;;19.67;17.33;;;;;23.55;86.79;101190.31;5058126;28;45400;-85
2023/06/12 10:34:48;;;;;;;;;16.33;16.33;;;;;23.48;88.13;101179.25;5056842;28;45381;-85
2023/06/12 10:37:52;;;;;;;;;19.67;17.33;;;;;23.94;85.68;101255.88;5045002;28;45280;-85
2023/06/12 10:41:03;;;;;;;;;24.00;21.33;;;;;23.79;85.07;101247.38;5063505;28;47088;-85
2023/06/12 10:47:27;;;;;;;;;;;;;;;;;;;;;
2023/06/12 10:50:21;;;;;;;;;16.67;16.67;;;;;23.77;94.10;101265.59;5046933;28;72924;-85
2023/06/12 10:53:04;;;;;;;;;20.33;17.33;;;;;23.75;92.92;101267.59;5008414;28;45494;-85
2023/06/12 10:55:46;;;;;;;;;26.00;20.33;;;;;23.79;89.86;101266.28;5039946;28;45483;-86
2023/06/12 10:58:38;;;;;;;;;21.33;18.67;;;;;23.67;92.12;101244.00;5048319;28;45514;-86
2023/06/12 11:01:38;;;;;;;;;18.67;16.33;;;;;23.89;90.11;101274.41;5032101;28;45662;-85
2023/06/12 11:04:13;;;;;;;;;19.00;15.00;;;;;23.68;94.32;101224.13;5060026;28;46381;-86
2023/06/12 11:07:21;;;;;;;;;16.67;16.33;;;;;23.55;88.35;101179.53;5064819;28;45526;-86
2023/06/12 11:09:51;;;;;;;;;17.33;17.33;;;;;24.12;88.66;101257.69;5014544;28;45459;-85
2023/06/12 11:12:18;;;;;;;;;15.67;15.67;;;;;23.72;91.72;101194.97;5055458;28;45600;-86
2023/06/12 11:15:20;;;;;;;;;16.00;15.33;;;;;23.97;91.57;101221.31;5066671;28;47470;-86
2023/06/12 11:17:56;;;;;;;;;17.67;16.67;;;;;24.22;92.23;101254.94;5057294;28;45368;-86
2023/06/12 11:20:44;;;;;;;;;19.67;17.33;;;;;24.03;89.42;101225.25;5032776;28;45318;-86
2023/06/12 11:23:26;;;;;;;;;19.67;19.33;;;;;23.77;90.30;101188.13;5046128;28;45822;-85
2023/06/12 11:26:46;;;;;;;;;;;;;;;;;;;;;
2023/06/12 11:29:52;;;;;;;;;19.67;17.00;;;;;23.55;88.61;101183.06;5066229;28;71336;-85
2023/06/12 11:32:45;;;;;;;;;20.33;19.00;;;;;23.69;88.18;101231.19;5061460;28;45606;-86
2023/06/12 11:35:11;;;;;;;;;20.67;20.67;;;;;23.47;88.77;101187.47;4999705;28;45492;-86
2023/06/12 11:37:40;;;;;;;;;20.00;18.00;;;;;23.79;91.07;101225.75;5070885;28;45592;-85
2023/06/12 11:40:42;;;;;;;;;18.00;18.00;;;;;23.92;92.37;101242.50;5029871;28;45342;-85